Time;durP1;ratioP1;P1;durP2;ratioP2;P2;SDS_P1;SDS_P2;PMS_P1;PMS_P2;Temp;Humidity;BMP_temperature;BMP_pressure;BME280_temperature;BME280_humidity;BME280_pressure;Samples;Min_cycle;Max_cycle;Signal;HPM_P1;HPM_P2
2022/07/04 00:00:58;;;;;;;5.00;3.40;;;;;;;;;;2086759;28;20168;-53
2022/07/04 00:02:00;;;;;;;3.92;3.53;;;;;;;;;;2085264;28;20891;-58
2022/07/04 00:03:00;;;;;;;3.78;3.50;;;;;;;;;;2083643;28;20633;-56
2022/07/04 00:04:00;;;;;;;3.55;3.35;;;;;;;;;;2082114;28;20188;-56
2022/07/04 00:05:01;;;;;;;4.78;3.40;;;;;;;;;;2083135;28;20157;-57
2022/07/04 00:06:01;;;;;;;3.17;2.97;;;;;;;;;;2084102;28;20176;-56
2022/07/04 00:07:02;;;;;;;3.50;3.30;;;;;;;;;;2083966;28;20252;-57
2022/07/04 00:08:02;;;;;;;3.72;3.17;;;;;;;;;;2083936;28;20198;-56
2022/07/04 00:09:03;;;;;;;3.58;3.28;;;;;;;;;;2083227;28;20549;-56
2022/07/04 00:10:06;;;;;;;3.78;3.53;;;;;;;;;;2083996;28;20174;-58
2022/07/04 00:11:07;;;;;;;4.07;3.85;;;;;;;;;;2079206;28;20196;-55
2022/07/04 00:12:07;;;;;;;3.70;3.50;;;;;;;;;;2080192;28;20195;-56
2022/07/04 00:13:07;;;;;;;3.78;3.50;;;;;;;;;;2080530;28;20173;-55
2022/07/04 00:14:08;;;;;;;3.72;3.42;;;;;;;;;;2082678;28;20225;-56
2022/07/04 00:15:08;;;;;;;4.28;3.85;;;;;;;;;;2083051;28;20187;-56
2022/07/04 00:16:09;;;;;;;3.92;3.50;;;;;;;;;;2083236;28;20183;-54
2022/07/04 00:17:12;;;;;;;3.92;3.63;;;;;;;;;;2083241;28;20622;-54
2022/07/04 00:18:12;;;;;;;3.88;3.67;;;;;;;;;;2087439;23;20315;-56
2022/07/04 00:19:12;;;;;;;4.22;3.58;;;;;;;;;;2082546;28;20181;-55
2022/07/04 00:20:13;;;;;;;3.67;3.28;;;;;;;;;;2082830;28;20251;-57
2022/07/04 00:21:13;;;;;;;3.97;3.67;;;;;;;;;;2083444;28;20180;-57
2022/07/04 00:22:13;;;;;;;3.53;3.33;;;;;;;;;;2082565;28;20184;-56
2022/07/04 00:23:14;;;;;;;3.85;3.42;;;;;;;;;;2084953;28;20168;-54
2022/07/04 00:24:14;;;;;;;3.55;3.35;;;;;;;;;;2082632;28;20168;-57
2022/07/04 00:25:14;;;;;;;3.88;3.67;;;;;;;;;;2082926;28;20171;-54
2022/07/04 00:26:15;;;;;;;3.53;3.22;;;;;;;;;;2082759;28;20181;-55
2022/07/04 00:27:15;;;;;;;3.58;3.28;;;;;;;;;;2082917;28;20188;-57
2022/07/04 00:28:16;;;;;;;3.72;3.42;;;;;;;;;;2082274;28;20703;-57
2022/07/04 00:29:16;;;;;;;4.40;3.55;;;;;;;;;;2082370;28;20214;-57
2022/07/04 00:30:16;;;;;;;4.45;4.05;;;;;;;;;;2083130;28;20743;-54
2022/07/04 00:31:17;;;;;;;3.58;3.38;;;;;;;;;;2082964;28;20180;-57
2022/07/04 00:32:17;;;;;;;3.40;3.20;;;;;;;;;;2083011;28;20163;-56
2022/07/04 00:33:17;;;;;;;3.72;3.53;;;;;;;;;;2090505;28;20187;-56
2022/07/04 00:34:18;;;;;;;3.90;3.70;;;;;;;;;;2089415;28;20328;-54
2022/07/04 00:35:18;;;;;;;3.80;3.40;;;;;;;;;;2092714;28;20254;-53
2022/07/04 00:36:19;;;;;;;3.60;3.30;;;;;;;;;;2090610;28;20175;-55
2022/07/04 00:37:19;;;;;;;4.07;3.70;;;;;;;;;;2083415;28;20688;-55
2022/07/04 00:38:19;;;;;;;3.90;3.70;;;;;;;;;;2082530;28;20184;-56
2022/07/04 00:39:20;;;;;;;3.83;3.55;;;;;;;;;;2082775;28;20169;-55
2022/07/04 00:40:20;;;;;;;4.32;3.83;;;;;;;;;;2083153;28;20182;-54
2022/07/04 00:41:20;;;;;;;4.28;3.97;;;;;;;;;;2083939;28;20164;-53
2022/07/04 00:42:21;;;;;;;4.30;3.40;;;;;;;;;;2083392;28;20180;-60
2022/07/04 00:43:23;;;;;;;3.58;3.28;;;;;;;;;;2083403;28;20188;-54
2022/07/04 00:44:23;;;;;;;4.03;3.72;;;;;;;;;;2081434;28;20167;-57
2022/07/04 00:45:24;;;;;;;3.92;3.63;;;;;;;;;;2082437;28;20169;-54
2022/07/04 00:46:24;;;;;;;4.03;3.72;;;;;;;;;;2083743;28;20222;-53
2022/07/04 00:47:24;;;;;;;3.88;3.58;;;;;;;;;;2083272;28;20206;-55
2022/07/04 00:48:25;;;;;;;3.88;3.67;;;;;;;;;;2083750;28;20172;-56
2022/07/04 00:49:25;;;;;;;3.70;3.47;;;;;;;;;;2090470;28;20198;-53
2022/07/04 00:50:26;;;;;;;4.03;3.70;;;;;;;;;;2081860;28;20180;-52
2022/07/04 00:51:27;;;;;;;4.13;3.83;;;;;;;;;;2081563;28;20169;-52
2022/07/04 00:52:28;;;;;;;4.18;3.80;;;;;;;;;;2084767;28;20168;-54
2022/07/04 00:53:28;;;;;;;4.32;3.92;;;;;;;;;;2081386;28;20621;-55
2022/07/04 00:54:29;;;;;;;4.63;4.03;;;;;;;;;;2081174;28;20577;-52
2022/07/04 00:55:30;;;;;;;3.92;3.70;;;;;;;;;;2082509;28;20234;-53
2022/07/04 00:56:30;;;;;;;4.43;4.13;;;;;;;;;;2082529;28;20244;-53
2022/07/04 00:57:30;;;;;;;4.35;3.92;;;;;;;;;;2082192;28;20594;-54
2022/07/04 00:58:31;;;;;;;5.28;4.78;;;;;;;;;;2082718;28;20164;-56
2022/07/04 00:59:31;;;;;;;4.13;3.78;;;;;;;;;;2082802;28;20195;-57
2022/07/04 01:00:31;;;;;;;4.25;3.92;;;;;;;;;;2082771;28;20172;-56
2022/07/04 01:01:32;;;;;;;5.18;4.65;;;;;;;;;;2082541;28;20168;-55
2022/07/04 01:02:33;;;;;;;4.72;4.35;;;;;;;;;;2082938;28;20260;-53
2022/07/04 01:03:33;;;;;;;4.45;4.15;;;;;;;;;;2082482;28;20175;-57
2022/07/04 01:04:34;;;;;;;4.47;4.18;;;;;;;;;;2081857;28;20165;-57
2022/07/04 01:05:34;;;;;;;4.68;4.28;;;;;;;;;;2083084;28;20208;-53
2022/07/04 01:06:34;;;;;;;5.10;4.63;;;;;;;;;;2083375;28;20190;-56
2022/07/04 01:07:35;;;;;;;5.00;4.60;;;;;;;;;;2082785;28;20211;-54
2022/07/04 01:08:37;;;;;;;5.68;5.22;;;;;;;;;;2083768;28;20164;-56
2022/07/04 01:09:37;;;;;;;4.97;4.68;;;;;;;;;;2084129;28;20180;-57
2022/07/04 01:10:37;;;;;;;5.45;4.72;;;;;;;;;;2083962;28;20180;-57
2022/07/04 01:11:38;;;;;;;4.70;4.40;;;;;;;;;;2083734;28;20172;-54
2022/07/04 01:12:38;;;;;;;5.28;4.78;;;;;;;;;;2083228;28;20180;-53
2022/07/04 01:13:40;;;;;;;5.10;4.70;;;;;;;;;;2082525;28;20176;-57
2022/07/04 01:14:41;;;;;;;7.60;5.07;;;;;;;;;;2081723;28;20230;-53
2022/07/04 01:15:41;;;;;;;6.68;5.63;;;;;;;;;;2082598;28;20173;-55
2022/07/04 01:16:41;;;;;;;6.00;5.13;;;;;;;;;;2082287;28;20217;-52
2022/07/04 01:17:42;;;;;;;5.28;4.88;;;;;;;;;;2082977;28;20773;-53
2022/07/04 01:18:42;;;;;;;5.85;5.40;;;;;;;;;;2082251;28;20291;-55
2022/07/04 01:19:42;;;;;;;5.93;5.35;;;;;;;;;;2081722;28;20176;-55
2022/07/04 01:20:43;;;;;;;5.43;5.05;;;;;;;;;;2082056;28;20180;-54
2022/07/04 01:21:43;;;;;;;5.50;5.10;;;;;;;;;;2081959;28;20195;-53
2022/07/04 01:22:44;;;;;;;6.80;5.55;;;;;;;;;;2081917;28;20275;-57
2022/07/04 01:23:44;;;;;;;6.22;5.75;;;;;;;;;;2081921;28;20184;-55
2022/07/04 01:24:44;;;;;;;6.18;5.75;;;;;;;;;;2088801;28;20194;-60
2022/07/04 01:25:45;;;;;;;6.75;5.88;;;;;;;;;;2089831;28;20207;-53
2022/07/04 01:26:45;;;;;;;5.72;5.22;;;;;;;;;;2081645;28;20237;-53
2022/07/04 01:27:45;;;;;;;7.07;5.95;;;;;;;;;;2082249;28;20191;-56
2022/07/04 01:28:46;;;;;;;5.38;4.88;;;;;;;;;;2081085;28;20181;-51
2022/07/04 01:29:46;;;;;;;5.93;5.53;;;;;;;;;;2081382;28;20192;-55
2022/07/04 01:30:46;;;;;;;5.90;4.72;;;;;;;;;;2081867;28;20164;-58
2022/07/04 01:31:47;;;;;;;5.55;5.15;;;;;;;;;;2082252;28;20188;-56
2022/07/04 01:32:47;;;;;;;5.68;5.18;;;;;;;;;;2082164;28;20172;-54
2022/07/04 01:33:47;;;;;;;5.95;5.47;;;;;;;;;;2082107;28;20168;-53
2022/07/04 01:34:48;;;;;;;6.13;5.68;;;;;;;;;;2080900;28;20211;-54
2022/07/04 01:35:48;;;;;;;7.55;6.60;;;;;;;;;;2081860;28;20176;-54
2022/07/04 01:36:48;;;;;;;6.38;5.88;;;;;;;;;;2082064;28;20187;-57
2022/07/04 01:37:49;;;;;;;6.72;6.10;;;;;;;;;;2082171;28;20677;-52
2022/07/04 01:38:50;;;;;;;7.30;6.20;;;;;;;;;;2081945;28;20204;-58
2022/07/04 01:39:50;;;;;;;6.45;5.85;;;;;;;;;;2081966;28;20188;-54
2022/07/04 01:40:50;;;;;;;7.00;6.40;;;;;;;;;;2081806;28;20234;-54
2022/07/04 01:41:50;;;;;;;7.03;6.45;;;;;;;;;;2082270;28;20811;-55
2022/07/04 01:42:51;;;;;;;6.97;6.43;;;;;;;;;;2081851;28;20650;-54
2022/07/04 01:43:51;;;;;;;7.00;6.40;;;;;;;;;;2081685;28;20263;-55
2022/07/04 01:44:51;;;;;;;9.88;5.90;;;;;;;;;;2081194;28;20267;-58
2022/07/04 01:45:52;;;;;;;7.43;6.72;;;;;;;;;;2081969;28;20177;-56
2022/07/04 01:46:52;;;;;;;7.40;6.90;;;;;;;;;;2081988;28;20175;-57
2022/07/04 01:47:52;;;;;;;7.18;6.53;;;;;;;;;;2081626;28;20196;-56
2022/07/04 01:48:53;;;;;;;6.82;6.32;;;;;;;;;;2081742;28;20263;-54
2022/07/04 01:49:53;;;;;;;7.30;6.70;;;;;;;;;;2079720;28;20164;-54
2022/07/04 01:50:53;;;;;;;6.47;5.88;;;;;;;;;;2073639;28;20200;-53
2022/07/04 01:51:54;;;;;;;7.50;6.32;;;;;;;;;;2073556;28;20212;-56
2022/07/04 01:52:54;;;;;;;5.97;5.40;;;;;;;;;;2073602;28;20176;-55
2022/07/04 01:53:54;;;;;;;7.03;6.45;;;;;;;;;;2077483;28;20176;-54
2022/07/04 01:54:54;;;;;;;6.70;6.10;;;;;;;;;;2081120;28;20177;-57
2022/07/04 01:55:55;;;;;;;6.85;6.45;;;;;;;;;;2079528;28;20204;-57
2022/07/04 01:56:55;;;;;;;6.78;6.30;;;;;;;;;;2074186;28;20193;-54
2022/07/04 01:57:55;;;;;;;7.45;6.75;;;;;;;;;;2073263;28;20200;-55
2022/07/04 01:58:56;;;;;;;7.60;6.90;;;;;;;;;;2073477;28;20205;-53
2022/07/04 02:01:31;;;;;;;7.53;6.82;;;;;;;;;;2080044;28;20242;-53
2022/07/04 02:02:31;;;;;;;7.45;6.57;;;;;;;;;;2074960;28;20192;-54
2022/07/04 02:03:32;;;;;;;7.47;6.78;;;;;;;;;;2080898;28;20176;-55
2022/07/04 02:04:32;;;;;;;7.97;7.15;;;;;;;;;;2080504;28;20247;-54
2022/07/04 02:05:33;;;;;;;10.43;6.75;;;;;;;;;;2081650;28;20268;-54
2022/07/04 02:06:33;;;;;;;7.93;7.25;;;;;;;;;;2081452;28;20255;-55
2022/07/04 02:07:34;;;;;;;7.90;7.32;;;;;;;;;;2081810;28;20191;-51
2022/07/04 02:09:53;;;;;;;7.82;7.13;;;;;;;;;;2078907;28;20222;-54
2022/07/04 02:10:53;;;;;;;8.55;7.75;;;;;;;;;;2081585;28;20180;-55
2022/07/04 02:13:13;;;;;;;8.07;7.38;;;;;;;;;;2081334;28;20679;-56
2022/07/04 02:14:14;;;;;;;7.70;6.97;;;;;;;;;;2080540;28;20160;-58
2022/07/04 02:15:14;;;;;;;7.35;6.80;;;;;;;;;;2080604;28;20215;-55
2022/07/04 02:16:14;;;;;;;7.57;6.97;;;;;;;;;;2081020;28;20244;-53
2022/07/04 02:17:14;;;;;;;7.88;7.22;;;;;;;;;;2081395;28;20174;-57
2022/07/04 02:18:15;;;;;;;7.88;7.18;;;;;;;;;;2080400;28;20203;-55
2022/07/04 02:19:15;;;;;;;8.07;7.32;;;;;;;;;;2080913;28;20204;-56
2022/07/04 02:20:16;;;;;;;8.57;7.47;;;;;;;;;;2081245;28;20172;-58
2022/07/04 02:21:16;;;;;;;7.53;6.95;;;;;;;;;;2081639;28;20175;-57
2022/07/04 02:22:17;;;;;;;8.45;7.60;;;;;;;;;;2081171;28;20173;-56
2022/07/04 02:23:17;;;;;;;9.02;8.32;;;;;;;;;;2081513;28;20176;-54
2022/07/04 02:24:17;;;;;;;7.95;7.25;;;;;;;;;;2080518;28;20599;-53
2022/07/04 02:25:18;;;;;;;9.32;8.38;;;;;;;;;;2081603;28;20171;-55
2022/07/04 02:26:18;;;;;;;7.90;7.30;;;;;;;;;;2081041;28;20176;-55
2022/07/04 02:27:18;;;;;;;7.85;7.22;;;;;;;;;;2081235;28;20179;-55
2022/07/04 02:28:19;;;;;;;8.25;7.50;;;;;;;;;;2075378;28;20217;-56
2022/07/04 02:29:19;;;;;;;8.02;7.32;;;;;;;;;;2079085;28;20176;-55
2022/07/04 02:30:19;;;;;;;8.23;7.53;;;;;;;;;;2081212;28;20165;-54
2022/07/04 02:31:20;;;;;;;7.90;7.13;;;;;;;;;;2088971;28;20172;-56
2022/07/04 02:32:20;;;;;;;8.77;7.95;;;;;;;;;;2080809;28;20172;-53
2022/07/04 02:33:21;;;;;;;7.75;7.05;;;;;;;;;;2081122;28;20172;-53
2022/07/04 02:34:21;;;;;;;8.25;7.55;;;;;;;;;;2080572;28;20243;-55
2022/07/04 02:35:21;;;;;;;7.70;7.20;;;;;;;;;;2081026;28;20265;-56
2022/07/04 02:36:22;;;;;;;7.55;7.05;;;;;;;;;;2081203;28;20179;-53
2022/07/04 02:37:22;;;;;;;8.75;8.05;;;;;;;;;;2081090;28;20196;-55
2022/07/04 02:38:22;;;;;;;8.90;8.20;;;;;;;;;;2081454;28;20164;-51
2022/07/04 02:39:24;;;;;;;10.60;9.38;;;;;;;;;;2081435;28;20528;-54
2022/07/04 02:40:24;;;;;;;9.18;8.48;;;;;;;;;;2080918;28;20262;-53
2022/07/04 02:41:24;;;;;;;9.98;9.07;;;;;;;;;;2081485;28;20241;-53
2022/07/04 02:42:28;;;;;;;9.82;9.02;;;;;;;;;;2081181;28;20596;-53
2022/07/04 02:43:28;;;;;;;8.70;8.00;;;;;;;;;;2081184;28;20538;-57
2022/07/04 02:44:30;;;;;;;9.40;8.50;;;;;;;;;;2080625;28;20179;-57
2022/07/04 02:45:30;;;;;;;9.60;8.80;;;;;;;;;;2081475;28;20172;-56
2022/07/04 02:46:32;;;;;;;13.48;9.75;;;;;;;;;;2081475;28;20406;-53
2022/07/04 02:47:33;;;;;;;14.52;13.05;;;;;;;;;;2081234;28;20583;-53
2022/07/04 02:48:33;;;;;;;9.38;8.48;;;;;;;;;;2081304;28;20164;-54
2022/07/04 02:49:33;;;;;;;7.97;7.25;;;;;;;;;;2081295;28;20168;-55
2022/07/04 02:50:33;;;;;;;8.38;7.65;;;;;;;;;;2073989;28;20189;-57
2022/07/04 02:51:34;;;;;;;8.10;7.50;;;;;;;;;;2073194;28;20164;-53
2022/07/04 02:52:34;;;;;;;8.38;7.78;;;;;;;;;;2073438;28;20173;-56
2022/07/04 02:53:34;;;;;;;8.43;7.72;;;;;;;;;;2073255;28;20181;-57
2022/07/04 02:54:35;;;;;;;8.38;7.75;;;;;;;;;;2072743;28;20160;-55
2022/07/04 02:55:35;;;;;;;9.45;8.48;;;;;;;;;;2081012;28;20649;-54
2022/07/04 02:56:35;;;;;;;9.40;8.57;;;;;;;;;;2081398;28;20649;-52
2022/07/04 02:57:37;;;;;;;9.75;8.95;;;;;;;;;;2081491;28;20168;-53
2022/07/04 02:58:37;;;;;;;9.45;8.55;;;;;;;;;;2081477;28;20176;-53
2022/07/04 02:59:38;;;;;;;9.45;8.55;;;;;;;;;;2082182;28;20203;-57
2022/07/04 03:00:38;;;;;;;9.25;8.45;;;;;;;;;;2081996;28;20173;-55
2022/07/04 03:01:38;;;;;;;11.68;9.15;;;;;;;;;;2081852;28;20191;-55
2022/07/04 03:02:39;;;;;;;10.05;8.98;;;;;;;;;;2082073;28;20204;-58
2022/07/04 03:03:39;;;;;;;10.60;9.70;;;;;;;;;;2081827;28;20648;-56
2022/07/04 03:04:39;;;;;;;10.77;9.73;;;;;;;;;;2080984;28;20176;-58
2022/07/04 03:05:40;;;;;;;10.98;9.88;;;;;;;;;;2091278;28;20168;-56
2022/07/04 03:06:42;;;;;;;10.50;9.50;;;;;;;;;;2090833;28;20176;-54
2022/07/04 03:07:42;;;;;;;12.00;9.40;;;;;;;;;;2083781;28;20216;-57
2022/07/04 03:08:43;;;;;;;9.05;8.25;;;;;;;;;;2083532;28;20647;-56
2022/07/04 03:09:43;;;;;;;10.05;9.25;;;;;;;;;;2090734;28;20175;-57
2022/07/04 03:10:44;;;;;;;10.43;9.48;;;;;;;;;;2091504;28;20187;-53
2022/07/04 03:11:44;;;;;;;11.57;10.38;;;;;;;;;;2083918;28;20698;-55
2022/07/04 03:12:44;;;;;;;10.70;9.90;;;;;;;;;;2083633;28;20184;-55
2022/07/04 03:13:45;;;;;;;10.90;10.00;;;;;;;;;;2084719;28;20180;-58
2022/07/04 03:14:45;;;;;;;10.65;9.75;;;;;;;;;;2082548;28;20556;-56
2022/07/04 03:15:46;;;;;;;10.68;9.77;;;;;;;;;;2083940;28;20198;-55
2022/07/04 03:16:46;;;;;;;10.27;9.48;;;;;;;;;;2084652;28;20622;-53
2022/07/04 03:17:46;;;;;;;10.82;9.93;;;;;;;;;;2084227;28;20200;-53
2022/07/04 03:18:47;;;;;;;11.23;10.25;;;;;;;;;;2084506;28;20203;-55
2022/07/04 03:19:47;;;;;;;11.70;10.50;;;;;;;;;;2084224;28;20176;-57
2022/07/04 03:20:47;;;;;;;12.77;11.25;;;;;;;;;;2084385;28;20172;-58
2022/07/04 03:21:48;;;;;;;11.68;10.73;;;;;;;;;;2084221;28;20702;-55
2022/07/04 03:22:48;;;;;;;12.23;10.77;;;;;;;;;;2082987;28;20230;-56
2022/07/04 03:23:58;;;;;;;10.60;9.75;;;;;;;;;;2082596;28;20185;-53
2022/07/04 03:24:58;;;;;;;12.02;10.75;;;;;;;;;;2082196;28;20160;-57
2022/07/04 03:25:59;;;;;;;12.20;11.00;;;;;;;;;;2085819;28;20175;-57
2022/07/04 03:26:59;;;;;;;11.63;10.52;;;;;;;;;;2092379;28;20199;-54
2022/07/04 03:28:00;;;;;;;11.93;10.93;;;;;;;;;;2093455;28;20564;-54
2022/07/04 03:29:00;;;;;;;12.23;10.95;;;;;;;;;;2093466;28;20183;-58
2022/07/04 03:30:01;;;;;;;12.40;10.88;;;;;;;;;;2086127;28;20169;-56
2022/07/04 03:31:01;;;;;;;13.25;10.88;;;;;;;;;;2084500;28;20180;-56
2022/07/04 03:32:02;;;;;;;11.95;10.85;;;;;;;;;;2084745;28;20237;-57
2022/07/04 03:33:02;;;;;;;12.75;11.63;;;;;;;;;;2084205;28;20730;-57
2022/07/04 03:34:02;;;;;;;12.07;10.63;;;;;;;;;;2083825;28;20183;-58
2022/07/04 03:35:03;;;;;;;12.13;11.10;;;;;;;;;;2083495;28;20553;-55
2022/07/04 03:36:03;;;;;;;11.98;9.80;;;;;;;;;;2083558;28;20211;-55
2022/07/04 03:37:03;;;;;;;11.25;10.35;;;;;;;;;;2083825;28;20182;-55
2022/07/04 03:38:04;;;;;;;11.20;10.20;;;;;;;;;;2083636;28;20198;-57
2022/07/04 03:39:04;;;;;;;10.95;10.05;;;;;;;;;;2084281;28;20199;-55
2022/07/04 03:40:05;;;;;;;11.82;10.65;;;;;;;;;;2084271;28;20550;-57
2022/07/04 03:41:05;;;;;;;11.23;10.13;;;;;;;;;;2083244;28;20271;-56
2022/07/04 03:42:06;;;;;;;11.05;10.07;;;;;;;;;;2082528;28;20191;-53
2022/07/04 03:43:06;;;;;;;11.20;10.10;;;;;;;;;;2083156;28;20176;-54
2022/07/04 03:44:06;;;;;;;11.55;10.55;;;;;;;;;;2082209;28;20207;-57
2022/07/04 03:45:07;;;;;;;10.68;9.77;;;;;;;;;;2083331;28;20169;-55
2022/07/04 03:46:07;;;;;;;12.30;10.90;;;;;;;;;;2090821;28;20190;-58
2022/07/04 03:47:07;;;;;;;10.98;9.63;;;;;;;;;;2090843;28;20321;-56
2022/07/04 03:48:08;;;;;;;11.57;10.55;;;;;;;;;;2083213;28;20195;-56
2022/07/04 03:49:08;;;;;;;11.18;10.35;;;;;;;;;;2083281;28;20208;-55
2022/07/04 03:50:08;;;;;;;10.57;9.75;;;;;;;;;;2079073;28;20185;-54
2022/07/04 03:51:10;;;;;;;11.10;10.13;;;;;;;;;;2074769;28;20189;-55
2022/07/04 03:52:11;;;;;;;11.27;10.05;;;;;;;;;;2075103;28;20173;-52
2022/07/04 03:53:12;;;;;;;11.70;10.80;;;;;;;;;;2074794;28;20255;-56
2022/07/04 03:54:12;;;;;;;12.02;11.02;;;;;;;;;;2074296;28;20534;-55
2022/07/04 03:55:12;;;;;;;11.27;10.13;;;;;;;;;;2082580;28;20168;-56
2022/07/04 03:56:13;;;;;;;11.05;10.05;;;;;;;;;;2082981;28;20777;-57
2022/07/04 03:57:13;;;;;;;12.48;11.07;;;;;;;;;;2083177;28;20168;-54
2022/07/04 03:58:14;;;;;;;11.50;10.30;;;;;;;;;;2073954;28;20359;-59
2022/07/04 03:59:14;;;;;;;11.55;10.55;;;;;;;;;;2069005;28;20213;-58
2022/07/04 04:00:14;;;;;;;12.15;11.02;;;;;;;;;;2082198;28;20172;-56
2022/07/04 04:01:18;;;;;;;12.85;11.55;;;;;;;;;;2083071;28;20621;-56
2022/07/04 04:02:18;;;;;;;12.07;11.07;;;;;;;;;;2082105;28;20196;-54
2022/07/04 04:05:57;;;;;;;13.30;11.93;;;;;;;;;;2082599;28;20168;-56
2022/07/04 04:06:57;;;;;;;12.95;11.75;;;;;;;;;;2082372;28;20167;-54
2022/07/04 04:07:58;;;;;;;12.18;11.07;;;;;;;;;;2082445;28;20193;-56
2022/07/04 04:08:58;;;;;;;13.40;12.05;;;;;;;;;;2082364;28;20254;-55
2022/07/04 04:09:59;;;;;;;13.02;11.80;;;;;;;;;;2082204;28;20226;-51
2022/07/04 04:10:59;;;;;;;12.88;11.77;;;;;;;;;;2082174;28;20180;-54
2022/07/04 04:12:00;;;;;;;12.65;11.55;;;;;;;;;;2082572;28;20175;-55
2022/07/04 04:13:00;;;;;;;12.85;11.70;;;;;;;;;;2081931;28;20184;-52
2022/07/04 04:14:00;;;;;;;14.48;11.70;;;;;;;;;;2081551;28;20175;-55
2022/07/04 04:15:01;;;;;;;12.57;11.38;;;;;;;;;;2082232;28;20176;-58
2022/07/04 04:16:01;;;;;;;13.30;12.18;;;;;;;;;;2082410;28;20198;-56
2022/07/04 04:17:01;;;;;;;13.95;12.50;;;;;;;;;;2082437;28;20651;-55
2022/07/04 04:18:02;;;;;;;13.25;11.95;;;;;;;;;;2081674;28;20235;-54
2022/07/04 04:19:02;;;;;;;14.48;12.32;;;;;;;;;;2081573;28;20246;-54
2022/07/04 04:20:03;;;;;;;13.32;11.77;;;;;;;;;;2082509;28;20171;-55
2022/07/04 04:21:04;;;;;;;15.52;12.48;;;;;;;;;;2089970;28;20640;-53
2022/07/04 04:22:04;;;;;;;15.70;12.02;;;;;;;;;;2090107;28;20293;-54
2022/07/04 04:23:05;;;;;;;13.73;12.50;;;;;;;;;;2082299;28;20179;-54
2022/07/04 04:24:07;;;;;;;13.32;11.95;;;;;;;;;;2081620;28;20165;-55
2022/07/04 04:25:07;;;;;;;12.48;11.38;;;;;;;;;;2082174;28;20172;-58
2022/07/04 04:26:08;;;;;;;13.75;12.43;;;;;;;;;;2086491;28;20159;-53
2022/07/04 04:27:08;;;;;;;13.82;12.63;;;;;;;;;;2090551;28;20541;-56
2022/07/04 04:28:08;;;;;;;14.63;13.27;;;;;;;;;;2086381;28;20673;-56
2022/07/04 04:29:09;;;;;;;14.73;13.15;;;;;;;;;;2078720;28;20234;-56
2022/07/04 04:30:09;;;;;;;19.33;12.30;;;;;;;;;;2082221;28;20172;-58
2022/07/04 04:31:09;;;;;;;14.15;12.70;;;;;;;;;;2082396;28;20183;-56
2022/07/04 04:32:10;;;;;;;14.35;12.85;;;;;;;;;;2082365;28;20165;-58
2022/07/04 04:33:10;;;;;;;14.57;13.10;;;;;;;;;;2090018;28;20164;-56
2022/07/04 04:34:10;;;;;;;13.93;12.73;;;;;;;;;;2088968;28;20163;-55
2022/07/04 04:35:11;;;;;;;14.52;13.13;;;;;;;;;;2081501;28;20224;-59
2022/07/04 04:36:11;;;;;;;14.95;13.40;;;;;;;;;;2080970;28;20168;-56
2022/07/04 04:37:12;;;;;;;14.90;13.45;;;;;;;;;;2081872;28;20184;-54
2022/07/04 04:38:12;;;;;;;14.40;12.77;;;;;;;;;;2080709;28;20196;-57
2022/07/04 04:39:13;;;;;;;16.65;14.63;;;;;;;;;;2081702;28;20318;-56
2022/07/04 04:40:14;;;;;;;15.48;14.00;;;;;;;;;;2082162;28;20173;-53
2022/07/04 04:41:16;;;;;;;15.48;14.00;;;;;;;;;;2082499;28;20199;-56
2022/07/04 04:42:17;;;;;;;14.75;13.45;;;;;;;;;;2081778;28;20572;-56
2022/07/04 04:43:18;;;;;;;14.90;13.60;;;;;;;;;;2082075;28;20167;-52
2022/07/04 04:44:19;;;;;;;15.35;13.85;;;;;;;;;;2080896;28;20556;-57
2022/07/04 04:45:19;;;;;;;16.00;14.32;;;;;;;;;;2082126;28;20184;-53
2022/07/04 04:46:20;;;;;;;15.02;13.40;;;;;;;;;;2082234;28;20164;-55
2022/07/04 04:47:20;;;;;;;13.38;12.00;;;;;;;;;;2082365;28;20306;-51
2022/07/04 04:48:20;;;;;;;16.98;14.05;;;;;;;;;;2082071;28;20196;-56
2022/07/04 04:49:21;;;;;;;15.52;14.02;;;;;;;;;;2082313;28;20173;-55
2022/07/04 04:50:21;;;;;;;15.45;13.93;;;;;;;;;;2082044;28;20238;-57
2022/07/04 04:51:21;;;;;;;16.52;13.38;;;;;;;;;;2082214;28;20267;-55
2022/07/04 04:52:21;;;;;;;17.23;14.65;;;;;;;;;;2082105;28;20176;-54
2022/07/04 04:53:25;;;;;;;16.58;14.88;;;;;;;;;;2082452;28;20234;-55
2022/07/04 04:54:25;;;;;;;16.98;14.73;;;;;;;;;;2081594;28;20219;-57
2022/07/04 04:55:25;;;;;;;15.48;13.88;;;;;;;;;;2082623;28;20195;-54
2022/07/04 04:56:26;;;;;;;13.95;12.68;;;;;;;;;;2082231;28;20173;-56
2022/07/04 04:57:26;;;;;;;15.95;14.35;;;;;;;;;;2082688;28;20568;-55
2022/07/04 04:58:26;;;;;;;15.02;13.50;;;;;;;;;;2082184;28;20556;-55
2022/07/04 04:59:30;;;;;;;16.15;13.10;;;;;;;;;;2082308;28;20239;-54
2022/07/04 05:00:31;;;;;;;14.95;13.63;;;;;;;;;;2082097;28;20172;-55
2022/07/04 05:01:31;;;;;;;15.70;14.27;;;;;;;;;;2082247;28;20173;-54
2022/07/04 05:02:31;;;;;;;14.57;13.18;;;;;;;;;;2082120;28;20196;-55
2022/07/04 05:03:32;;;;;;;16.05;13.80;;;;;;;;;;2082123;28;20168;-56
2022/07/04 05:04:32;;;;;;;14.27;12.93;;;;;;;;;;2081048;28;20188;-60
2022/07/04 05:05:32;;;;;;;14.93;13.52;;;;;;;;;;2082155;28;20168;-52
2022/07/04 05:06:33;;;;;;;15.32;13.93;;;;;;;;;;2081915;28;20519;-54
2022/07/04 05:07:33;;;;;;;15.05;12.90;;;;;;;;;;2081366;28;20747;-58
2022/07/04 05:08:34;;;;;;;14.68;13.27;;;;;;;;;;2081748;28;20219;-57
2022/07/04 05:09:34;;;;;;;13.73;12.52;;;;;;;;;;2082277;28;20176;-55
2022/07/04 05:10:34;;;;;;;15.90;12.60;;;;;;;;;;2082249;28;20209;-56
2022/07/04 05:11:35;;;;;;;14.25;12.85;;;;;;;;;;2082047;28;20183;-58
2022/07/04 05:12:35;;;;;;;14.32;12.75;;;;;;;;;;2082648;28;20165;-53
2022/07/04 05:13:36;;;;;;;15.35;13.68;;;;;;;;;;2082559;28;20214;-53
2022/07/04 05:14:36;;;;;;;14.43;12.98;;;;;;;;;;2081394;28;20195;-54
2022/07/04 05:15:36;;;;;;;13.70;12.57;;;;;;;;;;2082035;28;20544;-54
2022/07/04 05:16:37;;;;;;;13.32;12.13;;;;;;;;;;2082027;28;20254;-54
2022/07/04 05:17:37;;;;;;;12.02;10.95;;;;;;;;;;2081928;28;20198;-53
2022/07/04 05:18:38;;;;;;;13.30;11.55;;;;;;;;;;2081564;28;20180;-56
2022/07/04 05:19:38;;;;;;;13.05;11.88;;;;;;;;;;2081497;28;20194;-54
2022/07/04 05:20:39;;;;;;;13.00;11.88;;;;;;;;;;2074340;28;20183;-55
2022/07/04 05:21:39;;;;;;;12.07;10.98;;;;;;;;;;2081567;28;20563;-55
2022/07/04 05:22:39;;;;;;;11.63;10.43;;;;;;;;;;2081151;28;20172;-54
2022/07/04 05:23:40;;;;;;;12.05;10.95;;;;;;;;;;2081278;28;20174;-54
2022/07/04 05:24:40;;;;;;;13.63;11.38;;;;;;;;;;2080598;28;20255;-57
2022/07/04 05:25:41;;;;;;;12.13;11.05;;;;;;;;;;2081808;28;20673;-55
2022/07/04 05:26:41;;;;;;;11.68;10.57;;;;;;;;;;2082025;28;20168;-55
2022/07/04 05:27:41;;;;;;;10.65;9.75;;;;;;;;;;2081932;28;20556;-56
2022/07/04 05:28:41;;;;;;;10.65;9.57;;;;;;;;;;2082281;28;20183;-54
2022/07/04 05:29:42;;;;;;;11.68;10.63;;;;;;;;;;2080906;28;20176;-56
2022/07/04 05:30:42;;;;;;;11.60;10.55;;;;;;;;;;2081276;28;20204;-54
2022/07/04 05:31:42;;;;;;;11.82;10.73;;;;;;;;;;2080639;28;20171;-56
2022/07/04 05:32:43;;;;;;;11.93;9.98;;;;;;;;;;2082075;28;20171;-58
2022/07/04 05:33:43;;;;;;;9.65;8.80;;;;;;;;;;2089351;28;20180;-54
2022/07/04 05:34:43;;;;;;;9.65;8.70;;;;;;;;;;2088781;28;20170;-53
2022/07/04 05:35:44;;;;;;;8.50;7.65;;;;;;;;;;2082102;28;20180;-56
2022/07/04 05:36:44;;;;;;;11.50;7.68;;;;;;;;;;2082186;28;20661;-58
2022/07/04 05:37:44;;;;;;;8.90;8.10;;;;;;;;;;2081987;28;20228;-53
2022/07/04 05:38:45;;;;;;;8.88;7.80;;;;;;;;;;2081884;28;20279;-54
2022/07/04 05:39:45;;;;;;;9.32;8.52;;;;;;;;;;2082110;28;20191;-57
2022/07/04 05:40:45;;;;;;;8.30;7.70;;;;;;;;;;2081701;28;20176;-53
2022/07/04 05:41:46;;;;;;;7.53;6.93;;;;;;;;;;2081778;28;20222;-57
2022/07/04 05:42:46;;;;;;;8.23;7.10;;;;;;;;;;2082130;28;20523;-57
2022/07/04 05:43:46;;;;;;;9.00;8.10;;;;;;;;;;2081870;28;20700;-55
2022/07/04 05:44:46;;;;;;;8.85;8.05;;;;;;;;;;2080757;28;20706;-52
2022/07/04 05:45:48;;;;;;;8.75;7.93;;;;;;;;;;2081828;28;20534;-55
2022/07/04 05:46:48;;;;;;;9.65;7.32;;;;;;;;;;2081667;28;20315;-52
2022/07/04 05:47:48;;;;;;;8.13;6.57;;;;;;;;;;2080299;28;20200;-56
2022/07/04 05:48:49;;;;;;;7.70;6.97;;;;;;;;;;2080247;28;20191;-55
2022/07/04 05:49:49;;;;;;;8.93;6.95;;;;;;;;;;2079766;28;20555;-54
2022/07/04 05:50:49;;;;;;;9.55;7.25;;;;;;;;;;2080971;28;20183;-54
2022/07/04 05:51:50;;;;;;;7.20;6.00;;;;;;;;;;2081536;28;20164;-56
2022/07/04 05:52:50;;;;;;;6.63;6.10;;;;;;;;;;2081467;28;20192;-57
2022/07/04 05:53:50;;;;;;;6.20;5.80;;;;;;;;;;2079784;28;20515;-54
2022/07/04 05:54:51;;;;;;;5.70;5.15;;;;;;;;;;2071889;28;20685;-57
2022/07/04 05:55:51;;;;;;;6.18;5.13;;;;;;;;;;2072795;28;20587;-56
2022/07/04 05:56:51;;;;;;;6.10;5.47;;;;;;;;;;2080061;28;20168;-58
2022/07/04 05:57:53;;;;;;;6.00;5.45;;;;;;;;;;2081420;28;20700;-57
2022/07/04 05:58:53;;;;;;;6.28;4.70;;;;;;;;;;2081415;28;20195;-58
2022/07/04 05:59:53;;;;;;;6.70;5.15;;;;;;;;;;2081160;28;20200;-58
2022/07/04 06:00:54;;;;;;;5.65;5.05;;;;;;;;;;2081270;28;20573;-55
2022/07/04 06:01:54;;;;;;;5.88;5.28;;;;;;;;;;2081238;28;20211;-54
2022/07/04 06:02:55;;;;;;;6.80;5.22;;;;;;;;;;2081166;28;20804;-53
2022/07/04 06:03:55;;;;;;;4.90;4.50;;;;;;;;;;2080718;28;20199;-54
2022/07/04 06:04:55;;;;;;;5.30;4.80;;;;;;;;;;2080762;28;20176;-56
2022/07/04 06:05:56;;;;;;;4.68;3.78;;;;;;;;;;2081151;28;20176;-55